Time;durP1;ratioP1;P1;durP2;ratioP2;P2;SDS_P1;SDS_P2;PMS_P1;PMS_P2;Temp;Humidity;BMP_temperature;BMP_pressure;BME280_temperature;BME280_humidity;BME280_pressure;Samples;Min_cycle;Max_cycle;Signal;HPM_P1;HPM_P2
2022/07/04 07:42:42;;;;;;;10.30;3.22;;;;;;;;;;5074029;28;20047;-77
2022/07/04 07:45:08;;;;;;;7.85;2.67;;;;;;;;;;5067502;28;20021;-77
2022/07/04 07:47:34;;;;;;;8.18;2.70;;;;;;;;;;5069131;28;20517;-77
2022/07/04 07:50:03;;;;;;;9.23;2.85;;;;;;;;;;5068638;28;20035;-77
2022/07/04 07:52:29;;;;;;;11.65;3.20;;;;;;;;;;5070066;28;20025;-77
2022/07/04 07:54:55;;;;;;;8.32;3.88;;;;;;;;;;5068580;28;20060;-77
2022/07/04 07:57:21;;;;;;;6.60;3.15;;;;;;;;;;5068506;28;20157;-76
2022/07/04 07:59:47;;;;;;;10.52;3.42;;;;;;;;;;5069435;28;20107;-77
2022/07/04 08:02:13;;;;;;;8.15;3.60;;;;;;;;;;5068321;28;20111;-77
2022/07/04 08:04:40;;;;;;;10.18;2.83;;;;;;;;;;5067862;28;20028;-77
2022/07/04 08:07:07;;;;;;;8.93;2.88;;;;;;;;;;5066880;28;20032;-77
2022/07/04 08:09:34;;;;;;;7.00;2.88;;;;;;;;;;5064785;28;20250;-77
2022/07/04 08:12:00;;;;;;;6.68;2.90;;;;;;;;;;5066129;28;20035;-77
2022/07/04 08:14:26;;;;;;;7.07;2.78;;;;;;;;;;5066943;28;20032;-77
2022/07/04 08:16:52;;;;;;;6.93;3.03;;;;;;;;;;5065187;28;20063;-77
2022/07/04 08:19:19;;;;;;;8.05;3.42;;;;;;;;;;5061325;28;20034;-76
2022/07/04 08:21:46;;;;;;;8.57;3.47;;;;;;;;;;5067965;28;20051;-77
2022/07/04 08:24:13;;;;;;;7.95;2.75;;;;;;;;;;5070512;28;20043;-77
2022/07/04 08:26:38;;;;;;;8.50;3.13;;;;;;;;;;5065222;28;20033;-77
2022/07/04 08:29:04;;;;;;;9.73;3.33;;;;;;;;;;5069387;28;20029;-77
2022/07/04 08:31:31;;;;;;;9.32;3.25;;;;;;;;;;5065976;28;20040;-77
2022/07/04 08:33:57;;;;;;;8.38;3.33;;;;;;;;;;5068119;28;20079;-77
2022/07/04 08:36:23;;;;;;;7.75;3.10;;;;;;;;;;5065699;28;20086;-76
2022/07/04 08:38:49;;;;;;;10.80;3.20;;;;;;;;;;5068400;28;20024;-77
2022/07/04 08:41:16;;;;;;;7.80;3.22;;;;;;;;;;5071461;28;20064;-76
2022/07/04 08:43:42;;;;;;;7.03;2.63;;;;;;;;;;5071715;28;20897;-77
2022/07/04 08:46:10;;;;;;;7.88;2.60;;;;;;;;;;5078206;28;20024;-77
2022/07/04 08:48:38;;;;;;;7.25;2.88;;;;;;;;;;5081510;28;20028;-77
2022/07/04 08:51:24;;;;;;;7.00;3.28;;;;;;;;;;5080713;28;20032;-77
2022/07/04 08:53:52;;;;;;;7.53;3.30;;;;;;;;;;5068698;28;20042;-77
2022/07/04 08:59:15;;;;;;;8.27;2.90;;;;;;;;;;5014585;28;20053;-77
2022/07/04 09:01:42;;;;;;;7.95;2.67;;;;;;;;;;5081170;28;20044;-77
2022/07/04 09:04:08;;;;;;;5.72;2.70;;;;;;;;;;5085840;28;20032;-77
2022/07/04 09:06:34;;;;;;;7.50;2.83;;;;;;;;;;5080848;28;20055;-77
2022/07/04 09:09:01;;;;;;;9.50;2.55;;;;;;;;;;5078112;28;20379;-77
2022/07/04 09:11:27;;;;;;;5.75;2.58;;;;;;;;;;5085459;28;20032;-77
2022/07/04 09:13:53;;;;;;;6.68;2.90;;;;;;;;;;5085224;28;20111;-77
2022/07/04 09:16:19;;;;;;;9.00;3.13;;;;;;;;;;5083512;28;20107;-76
2022/07/04 09:18:45;;;;;;;8.27;2.78;;;;;;;;;;5082323;28;20036;-76
2022/07/04 09:21:11;;;;;;;8.50;2.78;;;;;;;;;;5082916;28;20028;-77
2022/07/04 09:23:39;;;;;;;8.75;3.03;;;;;;;;;;5081973;28;20036;-77
2022/07/04 09:26:10;;;;;;;12.10;3.95;;;;;;;;;;5076882;28;20028;-77
2022/07/04 09:28:36;;;;;;;7.68;2.75;;;;;;;;;;5074784;28;20074;-77
2022/07/04 09:31:02;;;;;;;5.05;2.65;;;;;;;;;;5077579;28;20047;-77
2022/07/04 09:33:44;;;;;;;12.25;3.45;;;;;;;;;;5083479;28;20035;-77
2022/07/04 09:36:11;;;;;;;8.75;2.70;;;;;;;;;;5078267;28;20039;-77
2022/07/04 09:38:37;;;;;;;5.82;2.50;;;;;;;;;;5080994;28;20032;-77
2022/07/04 09:44:05;;;;;;;7.22;2.67;;;;;;;;;;5080645;28;20055;-77
2022/07/04 09:46:33;;;;;;;10.85;3.25;;;;;;;;;;5078245;28;20028;-77
2022/07/04 09:48:59;;;;;;;9.82;3.17;;;;;;;;;;5080149;28;20035;-77
2022/07/04 09:51:41;;;;;;;8.30;3.00;;;;;;;;;;5085343;28;20041;-77
2022/07/04 09:54:28;;;;;;;9.68;2.97;;;;;;;;;;5081391;28;20462;-77
2022/07/04 09:56:58;;;;;;;7.18;2.95;;;;;;;;;;5083254;28;20032;-77
2022/07/04 09:59:25;;;;;;;7.15;3.33;;;;;;;;;;5072390;28;20075;-77
2022/07/04 10:01:51;;;;;;;10.80;3.05;;;;;;;;;;5077476;28;20470;-78
2022/07/04 10:04:20;;;;;;;7.03;2.88;;;;;;;;;;5075043;28;20055;-77
2022/07/04 10:06:46;;;;;;;4.95;2.28;;;;;;;;;;5087043;28;20028;-77
2022/07/04 10:09:13;;;;;;;8.27;2.40;;;;;;;;;;5097111;28;20431;-78
2022/07/04 10:11:40;;;;;;;6.93;3.03;;;;;;;;;;5103180;28;20032;-77
2022/07/04 10:14:07;;;;;;;8.82;3.15;;;;;;;;;;5094377;28;20024;-77
2022/07/04 10:16:33;;;;;;;5.07;2.75;;;;;;;;;;5096833;28;20565;-78
2022/07/04 10:19:00;;;;;;;8.52;3.35;;;;;;;;;;5094597;28;20443;-77
2022/07/04 10:21:26;;;;;;;6.10;2.90;;;;;;;;;;5096906;28;20028;-77
2022/07/04 10:23:52;;;;;;;6.57;2.80;;;;;;;;;;5094288;28;20035;-77
2022/07/04 10:26:19;;;;;;;5.45;2.53;;;;;;;;;;5098726;28;20638;-77
2022/07/04 10:28:47;;;;;;;8.82;3.35;;;;;;;;;;5093040;28;20035;-78
2022/07/04 10:31:13;;;;;;;6.15;2.60;;;;;;;;;;5099059;28;20028;-78
2022/07/04 10:33:40;;;;;;;8.70;3.50;;;;;;;;;;5090840;28;20031;-78
2022/07/04 10:36:16;;;;;;;7.28;2.95;;;;;;;;;;5096549;28;20107;-78
2022/07/04 10:38:52;;;;;;;7.10;2.50;;;;;;;;;;5093987;28;20085;-77
2022/07/04 10:41:20;;;;;;;8.95;2.67;;;;;;;;;;5094236;28;20028;-78
2022/07/04 10:44:02;;;;;;;5.95;2.58;;;;;;;;;;5094977;28;20584;-78
2022/07/04 10:46:32;;;;;;;6.45;2.22;;;;;;;;;;5096396;28;20028;-78
2022/07/04 10:49:06;;;;;;;9.68;3.20;;;;;;;;;;5093243;28;20571;-78
2022/07/04 10:51:33;;;;;;;9.60;3.20;;;;;;;;;;5099736;28;20039;-77
2022/07/04 10:54:00;;;;;;;9.02;2.40;;;;;;;;;;5102042;28;20558;-77
2022/07/04 10:56:25;;;;;;;5.95;2.95;;;;;;;;;;5101796;28;20746;-77
2022/07/04 10:58:52;;;;;;;8.63;2.60;;;;;;;;;;5095144;28;20031;-78
2022/07/04 11:01:21;;;;;;;5.50;2.10;;;;;;;;;;5099628;28;20028;-77
2022/07/04 11:03:54;;;;;;;6.43;2.58;;;;;;;;;;5101551;28;20047;-77
2022/07/04 11:06:36;;;;;;;7.28;2.35;;;;;;;;;;5102706;28;20101;-77
2022/07/04 11:09:18;;;;;;;7.38;2.25;;;;;;;;;;5099929;28;20028;-77
2022/07/04 11:11:51;;;;;;;7.10;2.25;;;;;;;;;;5101496;28;20103;-77
2022/07/04 11:14:36;;;;;;;5.55;2.08;;;;;;;;;;5096963;28;20032;-77
2022/07/04 11:17:03;;;;;;;5.32;1.90;;;;;;;;;;5103749;28;20830;-77
2022/07/04 11:19:29;;;;;;;6.25;2.13;;;;;;;;;;5101182;28;20373;-77
2022/07/04 11:21:58;;;;;;;5.70;1.83;;;;;;;;;;5092850;28;20028;-78
2022/07/04 11:24:25;;;;;;;10.43;2.60;;;;;;;;;;5102500;28;20043;-77
2022/07/04 11:26:51;;;;;;;7.07;2.03;;;;;;;;;;5103831;28;20035;-77
2022/07/04 11:29:17;;;;;;;8.98;2.03;;;;;;;;;;5101362;28;20110;-77
2022/07/04 11:31:45;;;;;;;10.23;2.58;;;;;;;;;;5097039;28;20043;-77
2022/07/04 11:34:11;;;;;;;5.82;2.53;;;;;;;;;;5097749;28;20031;-77
2022/07/04 11:36:38;;;;;;;7.20;1.85;;;;;;;;;;5096687;28;20028;-77
2022/07/04 11:39:05;;;;;;;5.30;2.30;;;;;;;;;;5099556;28;21135;-78
2022/07/04 11:47:08;;;;;;;7.60;2.63;;;;;;;;;;5093641;28;20097;-77
2022/07/04 11:49:34;;;;;;;5.50;2.13;;;;;;;;;;5091857;28;20066;-78
2022/07/04 11:52:00;;;;;;;3.88;1.63;;;;;;;;;;5096443;28;20032;-77
2022/07/04 11:54:27;;;;;;;5.43;1.80;;;;;;;;;;5096872;28;20058;-78
2022/07/04 11:56:53;;;;;;;8.63;2.60;;;;;;;;;;5099695;28;20054;-77
2022/07/04 11:59:19;;;;;;;3.85;1.80;;;;;;;;;;5106007;28;20039;-77
2022/07/04 12:01:45;;;;;;;6.18;1.92;;;;;;;;;;5104753;28;20042;-77
2022/07/04 12:04:12;;;;;;;8.80;2.05;;;;;;;;;;5100336;27;20034;-77
2022/07/04 12:06:38;;;;;;;5.00;1.77;;;;;;;;;;5094386;28;20039;-77
2022/07/04 12:09:05;;;;;;;5.93;1.73;;;;;;;;;;5093776;28;20119;-77
2022/07/04 12:11:50;;;;;;;5.75;1.70;;;;;;;;;;5098758;28;20708;-77
2022/07/04 12:14:16;;;;;;;5.85;2.10;;;;;;;;;;5099528;28;20031;-77
2022/07/04 12:16:42;;;;;;;8.05;2.30;;;;;;;;;;5098327;28;20031;-77
2022/07/04 12:19:11;;;;;;;6.78;2.78;;;;;;;;;;5097059;28;20775;-78
2022/07/04 12:21:38;;;;;;;7.03;2.00;;;;;;;;;;5100074;28;20031;-77
2022/07/04 12:24:04;;;;;;;7.10;2.08;;;;;;;;;;5095614;28;20035;-77
2022/07/04 12:26:35;;;;;;;5.03;1.80;;;;;;;;;;5097570;28;20684;-77
2022/07/04 12:29:01;;;;;;;5.68;1.60;;;;;;;;;;5101235;28;20141;-78
2022/07/04 12:31:40;;;;;;;5.13;1.80;;;;;;;;;;5096914;28;20534;-78
2022/07/04 12:34:14;;;;;;;6.45;2.20;;;;;;;;;;5096002;28;20043;-77
2022/07/04 12:36:48;;;;;;;9.60;2.22;;;;;;;;;;5100027;28;20039;-78
2022/07/04 12:39:27;;;;;;;3.75;2.03;;;;;;;;;;5099736;28;20119;-78
2022/07/04 12:42:03;;;;;;;5.40;1.88;;;;;;;;;;5102427;28;20490;-77
2022/07/04 12:44:30;;;;;;;8.55;2.22;;;;;;;;;;5099446;28;20113;-77
2022/07/04 12:46:59;;;;;;;5.22;2.30;;;;;;;;;;5098954;28;20124;-77
2022/07/04 12:49:26;;;;;;;5.13;1.83;;;;;;;;;;5100816;28;20031;-77
2022/07/04 12:51:52;;;;;;;8.52;1.90;;;;;;;;;;5100149;28;20055;-77
2022/07/04 12:54:18;;;;;;;8.35;2.28;;;;;;;;;;5096871;28;20536;-77
2022/07/04 12:56:45;;;;;;;6.97;1.88;;;;;;;;;;5103369;28;20036;-77
2022/07/04 12:59:12;;;;;;;5.63;1.77;;;;;;;;;;5103460;28;20036;-77
2022/07/04 13:01:39;;;;;;;8.23;1.90;;;;;;;;;;5102055;28;20529;-77
2022/07/04 13:04:06;;;;;;;5.25;1.90;;;;;;;;;;5099973;28;20027;-77
2022/07/04 13:06:32;;;;;;;5.88;1.80;;;;;;;;;;5095112;28;20036;-77
2022/07/04 13:08:58;;;;;;;4.55;1.65;;;;;;;;;;5097501;28;20039;-77
2022/07/04 13:14:09;;;;;;;6.82;2.33;;;;;;;;;;5103232;28;20042;-78
2022/07/04 13:16:35;;;;;;;6.45;1.60;;;;;;;;;;5096489;28;20470;-77
2022/07/04 13:19:02;;;;;;;7.30;2.00;;;;;;;;;;5098210;28;20395;-77
2022/07/04 13:21:28;;;;;;;5.97;1.60;;;;;;;;;;5101000;28;20032;-77
2022/07/04 13:23:54;;;;;;;4.90;1.98;;;;;;;;;;5102007;28;20028;-77
2022/07/04 13:26:20;;;;;;;8.52;1.92;;;;;;;;;;5097198;28;20032;-77
2022/07/04 13:28:46;;;;;;;5.78;1.67;;;;;;;;;;5098652;28;20059;-77
2022/07/04 13:31:12;;;;;;;6.50;2.20;;;;;;;;;;5100633;28;20032;-77
2022/07/04 13:33:39;;;;;;;9.27;1.80;;;;;;;;;;5098596;28;20059;-77
2022/07/04 13:36:05;;;;;;;6.90;2.05;;;;;;;;;;5099039;28;20035;-78
2022/07/04 13:38:31;;;;;;;7.68;2.10;;;;;;;;;;5094766;28;20100;-77
2022/07/04 13:40:57;;;;;;;9.52;2.10;;;;;;;;;;5094701;28;20028;-77
2022/07/04 13:43:24;;;;;;;5.20;1.38;;;;;;;;;;5097913;28;20056;-77
2022/07/04 13:45:50;;;;;;;4.97;1.80;;;;;;;;;;5097618;28;20031;-78
2022/07/04 13:48:16;;;;;;;5.35;1.83;;;;;;;;;;5101079;28;20068;-77
2022/07/04 13:50:42;;;;;;;6.28;1.85;;;;;;;;;;5098376;28;20043;-77
2022/07/04 13:53:09;;;;;;;5.72;1.60;;;;;;;;;;5092426;28;20024;-77
2022/07/04 13:55:35;;;;;;;5.40;1.90;;;;;;;;;;5090723;28;20103;-77
2022/07/04 13:58:02;;;;;;;5.93;1.80;;;;;;;;;;5100171;28;20023;-77
2022/07/04 14:00:28;;;;;;;3.60;1.40;;;;;;;;;;5100946;28;20063;-77
2022/07/04 14:02:54;;;;;;;5.43;1.90;;;;;;;;;;5102375;28;20509;-77
2022/07/04 14:05:20;;;;;;;7.72;1.92;;;;;;;;;;5100185;28;20035;-77
2022/07/04 14:07:47;;;;;;;4.22;1.77;;;;;;;;;;5096155;28;20028;-77
2022/07/04 14:10:14;;;;;;;5.35;2.28;;;;;;;;;;5098931;28;20065;-77
2022/07/04 14:12:40;;;;;;;4.05;1.88;;;;;;;;;;5103211;28;20702;-77
2022/07/04 14:15:06;;;;;;;11.00;1.90;;;;;;;;;;5099945;27;20135;-78
2022/07/04 14:17:32;;;;;;;8.48;1.70;;;;;;;;;;5096356;28;20110;-77
2022/07/04 14:19:58;;;;;;;6.88;2.03;;;;;;;;;;5100264;28;20553;-77
2022/07/04 14:22:24;;;;;;;6.63;2.05;;;;;;;;;;5098164;28;20032;-77
2022/07/04 14:24:50;;;;;;;4.20;1.60;;;;;;;;;;5096152;28;20027;-77
2022/07/04 14:27:16;;;;;;;5.32;1.80;;;;;;;;;;5099289;28;20819;-77
2022/07/04 14:29:43;;;;;;;9.45;2.08;;;;;;;;;;5096423;28;20435;-77
2022/07/04 14:32:09;;;;;;;6.03;2.03;;;;;;;;;;5100817;28;20031;-78
2022/07/04 14:34:35;;;;;;;4.60;1.67;;;;;;;;;;5092994;28;20533;-77
2022/07/04 14:37:01;;;;;;;7.35;1.50;;;;;;;;;;5096459;28;20038;-78
2022/07/04 14:39:27;;;;;;;4.25;1.63;;;;;;;;;;5097990;28;20067;-77
2022/07/04 14:41:53;;;;;;;6.88;1.60;;;;;;;;;;5105006;28;20047;-77
2022/07/04 14:44:19;;;;;;;4.15;1.50;;;;;;;;;;5098892;28;20040;-77
2022/07/04 14:46:45;;;;;;;6.28;1.40;;;;;;;;;;5106468;28;20114;-77
2022/07/04 14:49:12;;;;;;;4.90;1.85;;;;;;;;;;5099644;28;20039;-77
2022/07/04 14:51:39;;;;;;;7.65;1.58;;;;;;;;;;5098674;28;20041;-77
2022/07/04 14:54:06;;;;;;;6.90;2.28;;;;;;;;;;5101106;28;20093;-77
2022/07/04 14:56:33;;;;;;;5.03;1.73;;;;;;;;;;5097551;28;20062;-77
2022/07/04 14:58:59;;;;;;;4.68;1.80;;;;;;;;;;5095628;28;20032;-78
2022/07/04 15:01:25;;;;;;;6.57;1.73;;;;;;;;;;5103312;28;20080;-77
2022/07/04 15:03:51;;;;;;;11.57;2.40;;;;;;;;;;5097937;28;20024;-77
2022/07/04 15:06:17;;;;;;;7.68;2.05;;;;;;;;;;5090099;28;20382;-78
2022/07/04 15:08:43;;;;;;;5.40;1.80;;;;;;;;;;5092647;28;20843;-77
2022/07/04 15:11:09;;;;;;;5.57;1.73;;;;;;;;;;5097042;28;20040;-78
2022/07/04 15:13:35;;;;;;;6.93;2.13;;;;;;;;;;5092822;28;20023;-77
2022/07/04 15:16:01;;;;;;;3.97;1.30;;;;;;;;;;5093980;28;20028;-77
2022/07/04 15:18:27;;;;;;;3.90;1.23;;;;;;;;;;5098222;28;20028;-78
2022/07/04 15:26:23;;;;;;;5.90;1.52;;;;;;;;;;5099988;28;20504;-78
2022/07/04 15:28:49;;;;;;;5.78;1.58;;;;;;;;;;5096747;28;20040;-77
2022/07/04 15:31:15;;;;;;;7.78;1.80;;;;;;;;;;5107542;28;20067;-77
2022/07/04 15:33:41;;;;;;;8.13;1.92;;;;;;;;;;5099444;28;20027;-77
2022/07/04 15:36:07;;;;;;;7.68;1.92;;;;;;;;;;5103080;28;20447;-78
2022/07/04 15:38:33;;;;;;;10.35;1.92;;;;;;;;;;5103778;28;20053;-77
2022/07/04 15:41:01;;;;;;;8.07;2.15;;;;;;;;;;5102261;28;20039;-78
2022/07/04 15:43:27;;;;;;;8.35;1.95;;;;;;;;;;5107790;28;20705;-77
2022/07/04 15:45:53;;;;;;;10.85;2.42;;;;;;;;;;5096701;28;20032;-77
2022/07/04 15:48:19;;;;;;;8.50;1.75;;;;;;;;;;5103332;28;20493;-77
2022/07/04 15:50:45;;;;;;;7.25;2.15;;;;;;;;;;5097899;28;20032;-77
2022/07/04 15:53:11;;;;;;;6.78;2.15;;;;;;;;;;5102045;28;20034;-77
2022/07/04 15:55:37;;;;;;;5.90;2.10;;;;;;;;;;5099389;28;20034;-77
2022/07/04 15:58:03;;;;;;;6.90;1.85;;;;;;;;;;5099577;28;20023;-77
2022/07/04 16:00:30;;;;;;;6.57;1.90;;;;;;;;;;5096429;28;20039;-77
2022/07/04 16:02:56;;;;;;;7.50;1.67;;;;;;;;;;5104593;28;20035;-78
2022/07/04 16:05:22;;;;;;;10.98;2.15;;;;;;;;;;5098204;28;20058;-77
2022/07/04 16:07:49;;;;;;;7.72;2.40;;;;;;;;;;5102463;28;20114;-77
2022/07/04 16:10:15;;;;;;;10.10;1.90;;;;;;;;;;5101136;28;20035;-77
2022/07/04 16:12:41;;;;;;;6.97;2.13;;;;;;;;;;5105426;28;20028;-77
2022/07/04 16:15:07;;;;;;;9.02;2.10;;;;;;;;;;5098894;28;20028;-77
2022/07/04 16:17:34;;;;;;;5.28;1.90;;;;;;;;;;5100573;27;20382;-77
2022/07/04 16:20:00;;;;;;;7.88;1.80;;;;;;;;;;5100758;28;20076;-77
2022/07/04 16:22:26;;;;;;;4.72;1.90;;;;;;;;;;5101250;28;20424;-77
2022/07/04 16:24:52;;;;;;;4.82;2.20;;;;;;;;;;5101159;28;20020;-77
2022/07/04 16:27:19;;;;;;;16.02;2.83;;;;;;;;;;5097770;28;20097;-77
2022/07/04 16:29:45;;;;;;;10.32;2.42;;;;;;;;;;5100110;28;20031;-77
2022/07/04 16:32:11;;;;;;;5.05;2.17;;;;;;;;;;5102777;28;20040;-77
2022/07/04 16:34:37;;;;;;;5.30;1.92;;;;;;;;;;5104939;28;20031;-77
2022/07/04 16:37:03;;;;;;;6.75;2.00;;;;;;;;;;5083072;28;20825;-77
2022/07/04 16:39:29;;;;;;;12.15;2.58;;;;;;;;;;5098686;28;20023;-77
2022/07/04 16:41:55;;;;;;;7.88;2.50;;;;;;;;;;5097347;28;20050;-77
2022/07/04 16:44:21;;;;;;;7.15;1.85;;;;;;;;;;5102730;28;20044;-77
2022/07/04 16:46:47;;;;;;;5.25;2.17;;;;;;;;;;5106364;28;20032;-77
2022/07/04 16:49:14;;;;;;;6.70;1.98;;;;;;;;;;5097070;28;20032;-77
2022/07/04 16:51:40;;;;;;;5.53;1.65;;;;;;;;;;5096556;28;20023;-77
2022/07/04 16:54:06;;;;;;;7.78;2.20;;;;;;;;;;5104468;28;20450;-77
2022/07/04 16:56:32;;;;;;;5.40;2.03;;;;;;;;;;5098459;28;20115;-77
2022/07/04 16:58:58;;;;;;;8.15;2.05;;;;;;;;;;5098157;28;20369;-77
2022/07/04 17:01:24;;;;;;;4.78;1.67;;;;;;;;;;5101558;28;20046;-77
2022/07/04 17:03:50;;;;;;;5.75;2.30;;;;;;;;;;5099447;28;20066;-77
2022/07/04 17:06:16;;;;;;;12.40;2.63;;;;;;;;;;5096509;28;20502;-77
2022/07/04 17:08:42;;;;;;;6.20;1.70;;;;;;;;;;5102499;28;20421;-76
2022/07/04 17:11:09;;;;;;;9.10;2.22;;;;;;;;;;5097298;28;20073;-77
2022/07/04 17:13:36;;;;;;;9.25;2.03;;;;;;;;;;5103323;28;20111;-77
2022/07/04 17:16:02;;;;;;;7.32;2.40;;;;;;;;;;5102685;28;20028;-77
2022/07/04 17:18:27;;;;;;;8.52;2.10;;;;;;;;;;5105011;28;20085;-77
2022/07/04 17:20:54;;;;;;;6.90;2.38;;;;;;;;;;5096717;28;20035;-77
2022/07/04 17:23:21;;;;;;;5.38;2.10;;;;;;;;;;5096742;28;20799;-77
2022/07/04 17:25:47;;;;;;;7.70;2.10;;;;;;;;;;5097878;28;20069;-77
2022/07/04 17:28:13;;;;;;;5.93;2.20;;;;;;;;;;5100898;28;20443;-77
2022/07/04 17:30:39;;;;;;;9.35;2.40;;;;;;;;;;5101883;28;20119;-77
2022/07/04 17:33:05;;;;;;;7.03;2.70;;;;;;;;;;5105261;28;20030;-77
2022/07/04 17:35:31;;;;;;;11.75;2.78;;;;;;;;;;5099492;28;20028;-77
2022/07/04 17:37:57;;;;;;;6.68;1.92;;;;;;;;;;5106430;28;20024;-77
2022/07/04 17:40:23;;;;;;;7.60;2.08;;;;;;;;;;5093851;28;20044;-77
2022/07/04 17:42:49;;;;;;;5.43;1.70;;;;;;;;;;5103280;28;20799;-77
2022/07/04 17:45:15;;;;;;;7.57;1.77;;;;;;;;;;5094612;28;20681;-77
2022/07/04 17:47:41;;;;;;;8.68;2.42;;;;;;;;;;5097106;28;20023;-77
2022/07/04 17:50:09;;;;;;;10.13;2.38;;;;;;;;;;5101336;28;20039;-77
2022/07/04 17:52:35;;;;;;;6.78;2.10;;;;;;;;;;5103493;28;20473;-77
2022/07/04 17:55:01;;;;;;;7.03;2.33;;;;;;;;;;5101306;28;20023;-77
2022/07/04 17:57:27;;;;;;;5.78;2.03;;;;;;;;;;5095818;28;20978;-77
2022/07/04 17:59:53;;;;;;;6.93;2.03;;;;;;;;;;5099398;28;20027;-77
2022/07/04 18:02:19;;;;;;;7.88;2.45;;;;;;;;;;5100313;28;20036;-77
2022/07/04 18:04:45;;;;;;;11.43;5.32;;;;;;;;;;5100487;28;20085;-77
2022/07/04 18:07:12;;;;;;;10.18;3.38;;;;;;;;;;5101048;28;20114;-77
2022/07/04 18:09:38;;;;;;;10.55;2.10;;;;;;;;;;5100012;28;20048;-77
2022/07/04 18:12:04;;;;;;;7.40;2.10;;;;;;;;;;5100153;28;20027;-78
2022/07/04 18:14:30;;;;;;;8.65;2.20;;;;;;;;;;5094990;28;20039;-77
2022/07/04 18:16:56;;;;;;;7.15;2.20;;;;;;;;;;5101978;28;20032;-77
2022/07/04 18:19:22;;;;;;;6.55;2.03;;;;;;;;;;5106903;28;20035;-77
2022/07/04 18:21:48;;;;;;;7.45;2.05;;;;;;;;;;5105089;28;20065;-78
2022/07/04 18:24:14;;;;;;;7.70;1.80;;;;;;;;;;5103189;28;20266;-77
2022/07/04 18:26:40;;;;;;;6.70;1.70;;;;;;;;;;5104876;28;20464;-77
2022/07/04 18:29:07;;;;;;;6.80;2.13;;;;;;;;;;5097894;28;20027;-77
2022/07/04 18:31:33;;;;;;;7.95;2.28;;;;;;;;;;5096979;28;20036;-77
2022/07/04 18:33:59;;;;;;;7.22;1.95;;;;;;;;;;5096738;28;20035;-77
2022/07/04 18:36:25;;;;;;;6.13;2.42;;;;;;;;;;5093142;28;20039;-77
2022/07/04 18:38:51;;;;;;;7.80;2.58;;;;;;;;;;5093042;27;20054;-77
2022/07/04 18:44:04;;;;;;;7.88;2.25;;;;;;;;;;5101169;28;20128;-77
2022/07/04 18:46:30;;;;;;;7.32;1.67;;;;;;;;;;5093728;28;20030;-77
2022/07/04 18:48:56;;;;;;;5.75;1.88;;;;;;;;;;5097473;28;20098;-77
2022/07/04 18:51:22;;;;;;;6.32;2.20;;;;;;;;;;5095702;28;20873;-77
2022/07/04 18:53:49;;;;;;;5.38;1.88;;;;;;;;;;5098323;28;20035;-77
2022/07/04 18:56:15;;;;;;;9.27;2.08;;;;;;;;;;5099270;28;20114;-77
2022/07/04 18:58:41;;;;;;;6.75;1.70;;;;;;;;;;5093607;28;20034;-77
2022/07/04 19:01:07;;;;;;;8.18;2.03;;;;;;;;;;5092348;28;20035;-77
2022/07/04 19:03:33;;;;;;;11.55;2.75;;;;;;;;;;5095004;28;20032;-77
2022/07/04 19:06:02;;;;;;;8.23;2.33;;;;;;;;;;5101921;28;20528;-77
2022/07/04 19:08:29;;;;;;;7.07;2.10;;;;;;;;;;5092699;28;20035;-77
2022/07/04 19:10:55;;;;;;;6.63;1.85;;;;;;;;;;5098613;28;20375;-77
2022/07/04 19:13:22;;;;;;;5.55;1.55;;;;;;;;;;5095188;28;20466;-77
2022/07/04 19:15:48;;;;;;;7.53;1.88;;;;;;;;;;5102537;28;20030;-77
2022/07/04 19:18:14;;;;;;;7.30;2.60;;;;;;;;;;5100883;28;20761;-77
2022/07/04 19:20:40;;;;;;;7.18;1.85;;;;;;;;;;5101924;28;20036;-77
2022/07/04 19:23:07;;;;;;;12.93;2.50;;;;;;;;;;5102653;28;20039;-77
2022/07/04 19:25:34;;;;;;;9.95;2.97;;;;;;;;;;5101452;28;20107;-77
2022/07/04 19:28:00;;;;;;;9.35;2.50;;;;;;;;;;5100021;28;20032;-77
2022/07/04 19:30:26;;;;;;;9.65;2.65;;;;;;;;;;5099985;28;20077;-77
2022/07/04 19:32:52;;;;;;;7.15;1.92;;;;;;;;;;5103264;28;20028;-77
2022/07/04 19:35:18;;;;;;;5.47;1.48;;;;;;;;;;5101328;28;20043;-77
2022/07/04 19:37:44;;;;;;;6.50;1.70;;;;;;;;;;5097199;28;20503;-77
2022/07/04 19:40:10;;;;;;;9.13;2.53;;;;;;;;;;5100337;28;20036;-77
2022/07/04 19:42:37;;;;;;;7.60;1.75;;;;;;;;;;5098658;28;20541;-77
2022/07/04 19:45:03;;;;;;;10.82;1.67;;;;;;;;;;5074284;28;20061;-77
2022/07/04 19:47:29;;;;;;;12.38;2.30;;;;;;;;;;5077981;28;20028;-77
2022/07/04 19:49:56;;;;;;;7.78;2.67;;;;;;;;;;5082183;28;20040;-77
2022/07/04 19:52:33;;;;;;;7.30;2.33;;;;;;;;;;5073181;28;20028;-77
2022/07/04 19:55:00;;;;;;;7.40;1.90;;;;;;;;;;5075895;28;20139;-77
2022/07/04 19:57:27;;;;;;;9.70;2.05;;;;;;;;;;5072819;28;20077;-77
2022/07/04 19:59:54;;;;;;;8.18;2.10;;;;;;;;;;5083735;28;20471;-77
2022/07/04 20:02:20;;;;;;;10.82;2.53;;;;;;;;;;5078387;28;20631;-77
2022/07/04 20:04:46;;;;;;;10.70;2.75;;;;;;;;;;5071405;28;20085;-77
2022/07/04 20:07:12;;;;;;;8.85;2.35;;;;;;;;;;5083055;28;20093;-77
2022/07/04 20:09:38;;;;;;;7.88;2.08;;;;;;;;;;5081889;28;20051;-77
2022/07/04 20:12:04;;;;;;;8.18;2.33;;;;;;;;;;5074661;28;20024;-76
2022/07/04 20:14:31;;;;;;;6.15;2.15;;;;;;;;;;5078408;28;20055;-77
2022/07/04 20:16:57;;;;;;;6.40;1.77;;;;;;;;;;5077940;28;20025;-77
2022/07/04 20:19:23;;;;;;;8.00;1.75;;;;;;;;;;5087630;28;20066;-77
2022/07/04 20:21:50;;;;;;;8.10;2.20;;;;;;;;;;5082152;28;20822;-77
2022/07/04 20:24:16;;;;;;;7.15;1.77;;;;;;;;;;5085773;28;20039;-77
2022/07/04 20:26:43;;;;;;;8.50;1.55;;;;;;;;;;5084849;28;20056;-77
2022/07/04 20:29:09;;;;;;;7.20;1.40;;;;;;;;;;5078980;28;20462;-76
2022/07/04 20:31:36;;;;;;;6.53;1.33;;;;;;;;;;5077827;28;20028;-77
2022/07/04 20:34:03;;;;;;;9.25;2.20;;;;;;;;;;5085305;28;20032;-77
2022/07/04 20:36:29;;;;;;;6.35;1.98;;;;;;;;;;5085280;28;20525;-77
2022/07/04 20:38:55;;;;;;;6.65;1.80;;;;;;;;;;5082234;28;20032;-77
2022/07/04 20:41:21;;;;;;;7.55;1.67;;;;;;;;;;5082479;28;20120;-77
2022/07/04 20:43:47;;;;;;;7.20;2.38;;;;;;;;;;5094867;28;20056;-77
2022/07/04 20:46:13;;;;;;;6.32;1.60;;;;;;;;;;5102704;28;20730;-77
2022/07/04 20:48:42;;;;;;;5.68;1.65;;;;;;;;;;5106087;28;20059;-77
2022/07/04 20:51:08;;;;;;;6.85;1.58;;;;;;;;;;5106172;28;20030;-77
2022/07/04 20:53:34;;;;;;;9.38;2.15;;;;;;;;;;5101780;28;20028;-76
2022/07/04 20:56:00;;;;;;;4.80;1.20;;;;;;;;;;5096345;28;20099;-77
2022/07/04 20:58:26;;;;;;;8.73;1.52;;;;;;;;;;5105441;28;20122;-77
2022/07/04 21:00:52;;;;;;;8.52;2.00;;;;;;;;;;5092044;28;20043;-77
2022/07/04 21:03:18;;;;;;;6.20;1.73;;;;;;;;;;5099131;28;20050;-77
2022/07/04 21:05:44;;;;;;;8.32;2.67;;;;;;;;;;5100788;28;20455;-77
2022/07/04 21:08:10;;;;;;;7.00;1.90;;;;;;;;;;5107268;28;20036;-76
2022/07/04 21:10:36;;;;;;;6.88;1.38;;;;;;;;;;5106186;28;20031;-77
2022/07/04 21:13:03;;;;;;;6.60;1.65;;;;;;;;;;5102756;28;20429;-77
2022/07/04 21:15:29;;;;;;;7.25;1.60;;;;;;;;;;5100548;28;20771;-77
2022/07/04 21:17:56;;;;;;;7.53;1.83;;;;;;;;;;5097234;28;20035;-77
2022/07/04 21:20:23;;;;;;;5.20;1.20;;;;;;;;;;5102546;28;20903;-77
2022/07/04 21:22:49;;;;;;;5.18;1.38;;;;;;;;;;5100853;28;20040;-77
2022/07/04 21:25:15;;;;;;;6.38;1.70;;;;;;;;;;5105873;28;20024;-77
2022/07/04 21:27:42;;;;;;;5.93;1.40;;;;;;;;;;5104158;28;20831;-77
2022/07/04 21:30:08;;;;;;;5.60;1.55;;;;;;;;;;5099519;27;20024;-77
2022/07/04 21:32:34;;;;;;;8.15;1.40;;;;;;;;;;5100569;27;20084;-77
2022/07/04 21:35:01;;;;;;;6.93;1.65;;;;;;;;;;5096010;28;20028;-77
2022/07/04 21:37:27;;;;;;;4.25;1.25;;;;;;;;;;5103479;28;20091;-77
2022/07/04 21:39:53;;;;;;;11.38;2.17;;;;;;;;;;5104152;28;20032;-77
2022/07/04 21:42:19;;;;;;;5.07;1.25;;;;;;;;;;5095081;28;20040;-77
2022/07/04 21:44:45;;;;;;;7.18;1.70;;;;;;;;;;5097730;28;20044;-76
2022/07/04 21:47:11;;;;;;;6.32;1.73;;;;;;;;;;5103729;28;20087;-77
2022/07/04 21:49:37;;;;;;;6.75;1.55;;;;;;;;;;5104792;28;20113;-77
2022/07/04 21:52:03;;;;;;;7.55;1.83;;;;;;;;;;5094693;28;20550;-77
2022/07/04 21:54:29;;;;;;;6.90;1.48;;;;;;;;;;5102690;28;20520;-77
2022/07/04 21:56:55;;;;;;;3.63;1.35;;;;;;;;;;5101469;28;20032;-77
2022/07/04 21:59:21;;;;;;;4.13;1.02;;;;;;;;;;5094761;28;20096;-77
2022/07/04 22:01:47;;;;;;;8.85;1.30;;;;;;;;;;5104927;28;20778;-77
2022/07/04 22:04:13;;;;;;;5.10;1.30;;;;;;;;;;5097141;28;20063;-77
2022/07/04 22:06:39;;;;;;;5.40;1.00;;;;;;;;;;5103821;28;20061;-77
2022/07/04 22:09:05;;;;;;;5.72;1.50;;;;;;;;;;5103443;28;20035;-77
2022/07/04 22:11:31;;;;;;;5.65;1.60;;;;;;;;;;5100164;28;20039;-76
2022/07/04 22:13:57;;;;;;;8.82;2.20;;;;;;;;;;5103451;28;20087;-77
2022/07/04 22:16:23;;;;;;;7.22;2.13;;;;;;;;;;5102822;28;20081;-77
2022/07/04 22:18:49;;;;;;;11.80;2.17;;;;;;;;;;5093786;28;20035;-77
2022/07/04 22:21:15;;;;;;;11.48;2.05;;;;;;;;;;5093821;28;20040;-77
2022/07/04 22:23:41;;;;;;;7.57;1.85;;;;;;;;;;5107337;27;20042;-77
2022/07/04 22:26:07;;;;;;;11.80;2.05;;;;;;;;;;5093175;28;20040;-77
2022/07/04 22:28:33;;;;;;;7.15;1.17;;;;;;;;;;5103561;28;20035;-77
2022/07/04 22:30:59;;;;;;;5.88;1.42;;;;;;;;;;5103105;28;20036;-76
2022/07/04 22:33:25;;;;;;;8.85;2.15;;;;;;;;;;5089469;28;20059;-77
2022/07/04 22:35:51;;;;;;;5.97;1.70;;;;;;;;;;5090070;28;20032;-77
2022/07/04 22:38:17;;;;;;;5.75;1.40;;;;;;;;;;5093283;28;20040;-77
2022/07/04 22:40:43;;;;;;;7.75;1.70;;;;;;;;;;5093269;28;20044;-77
2022/07/04 22:43:09;;;;;;;6.65;1.88;;;;;;;;;;5107360;28;20639;-77